sensor_id;sensor_type;location;lat;lon;timestamp;P1;durP1;ratioP1;P2;durP2;ratioP2
57561;SDS011;43397;51.530;5.974;2023-02-27T00:01:50;6.43;;;3.30;;
57561;SDS011;43397;51.530;5.974;2023-02-27T00:04:17;7.68;;;3.50;;
57561;SDS011;43397;51.530;5.974;2023-02-27T00:06:42;9.15;;;3.60;;
57561;SDS011;43397;51.530;5.974;2023-02-27T00:09:08;10.30;;;4.30;;
57561;SDS011;43397;51.530;5.974;2023-02-27T00:11:34;8.27;;;3.80;;
57561;SDS011;43397;51.530;5.974;2023-02-27T00:14:01;7.65;;;3.90;;
57561;SDS011;43397;51.530;5.974;2023-02-27T00:16:28;6.63;;;3.47;;
57561;SDS011;43397;51.530;5.974;2023-02-27T00:18:54;7.38;;;3.40;;
57561;SDS011;43397;51.530;5.974;2023-02-27T00:21:19;9.35;;;3.67;;
57561;SDS011;43397;51.530;5.974;2023-02-27T00:23:45;9.07;;;3.85;;
57561;SDS011;43397;51.530;5.974;2023-02-27T00:26:11;8.88;;;3.75;;
57561;SDS011;43397;51.530;5.974;2023-02-27T00:28:36;8.63;;;4.25;;
57561;SDS011;43397;51.530;5.974;2023-02-27T00:31:04;8.65;;;3.58;;
57561;SDS011;43397;51.530;5.974;2023-02-27T00:33:29;7.53;;;3.78;;
57561;SDS011;43397;51.530;5.974;2023-02-27T00:35:55;8.07;;;3.60;;
57561;SDS011;43397;51.530;5.974;2023-02-27T00:38:21;8.35;;;4.25;;
57561;SDS011;43397;51.530;5.974;2023-02-27T00:40:47;9.02;;;4.00;;
57561;SDS011;43397;51.530;5.974;2023-02-27T00:43:13;7.00;;;3.80;;
57561;SDS011;43397;51.530;5.974;2023-02-27T00:45:38;7.50;;;4.50;;
57561;SDS011;43397;51.530;5.974;2023-02-27T00:48:05;10.27;;;4.38;;
57561;SDS011;43397;51.530;5.974;2023-02-27T00:50:31;7.50;;;4.10;;
57561;SDS011;43397;51.530;5.974;2023-02-27T00:52:57;11.52;;;4.65;;
57561;SDS011;43397;51.530;5.974;2023-02-27T00:55:23;8.35;;;4.75;;
57561;SDS011;43397;51.530;5.974;2023-02-27T00:57:48;10.30;;;5.00;;
57561;SDS011;43397;51.530;5.974;2023-02-27T01:00:14;9.68;;;5.00;;
57561;SDS011;43397;51.530;5.974;2023-02-27T01:02:41;8.35;;;4.03;;
57561;SDS011;43397;51.530;5.974;2023-02-27T01:05:08;7.68;;;3.92;;
57561;SDS011;43397;51.530;5.974;2023-02-27T01:07:34;9.88;;;5.22;;
57561;SDS011;43397;51.530;5.974;2023-02-27T01:10:01;8.77;;;4.70;;
57561;SDS011;43397;51.530;5.974;2023-02-27T01:12:27;8.32;;;5.55;;
57561;SDS011;43397;51.530;5.974;2023-02-27T01:14:52;10.43;;;5.10;;
57561;SDS011;43397;51.530;5.974;2023-02-27T01:17:18;9.75;;;5.05;;
57561;SDS011;43397;51.530;5.974;2023-02-27T01:19:44;8.85;;;4.75;;
57561;SDS011;43397;51.530;5.974;2023-02-27T01:22:11;9.25;;;4.72;;
57561;SDS011;43397;51.530;5.974;2023-02-27T01:24:37;8.10;;;5.13;;
57561;SDS011;43397;51.530;5.974;2023-02-27T01:27:03;7.75;;;5.00;;
57561;SDS011;43397;51.530;5.974;2023-02-27T01:29:28;9.45;;;4.50;;
57561;SDS011;43397;51.530;5.974;2023-02-27T01:31:54;8.95;;;4.38;;
57561;SDS011;43397;51.530;5.974;2023-02-27T01:34:20;9.65;;;4.75;;
57561;SDS011;43397;51.530;5.974;2023-02-27T01:36:45;10.10;;;4.47;;
57561;SDS011;43397;51.530;5.974;2023-02-27T01:39:12;11.15;;;5.18;;
57561;SDS011;43397;51.530;5.974;2023-02-27T01:41:38;12.98;;;5.65;;
57561;SDS011;43397;51.530;5.974;2023-02-27T01:44:05;9.75;;;5.10;;
57561;SDS011;43397;51.530;5.974;2023-02-27T01:46:32;11.27;;;5.60;;
57561;SDS011;43397;51.530;5.974;2023-02-27T01:49:01;10.48;;;5.05;;
57561;SDS011;43397;51.530;5.974;2023-02-27T01:51:31;9.57;;;5.53;;
57561;SDS011;43397;51.530;5.974;2023-02-27T01:54:01;11.63;;;5.18;;
57561;SDS011;43397;51.530;5.974;2023-02-27T01:56:30;10.50;;;6.28;;
57561;SDS011;43397;51.530;5.974;2023-02-27T01:58:58;13.13;;;5.47;;
57561;SDS011;43397;51.530;5.974;2023-02-27T02:01:26;8.30;;;4.63;;
57561;SDS011;43397;51.530;5.974;2023-02-27T02:03:55;13.23;;;5.40;;
57561;SDS011;43397;51.530;5.974;2023-02-27T02:06:25;8.20;;;5.20;;
57561;SDS011;43397;51.530;5.974;2023-02-27T02:08:53;10.10;;;4.97;;
57561;SDS011;43397;51.530;5.974;2023-02-27T02:11:20;13.98;;;5.80;;
57561;SDS011;43397;51.530;5.974;2023-02-27T02:13:50;11.25;;;5.45;;
57561;SDS011;43397;51.530;5.974;2023-02-27T02:16:22;11.48;;;6.25;;
57561;SDS011;43397;51.530;5.974;2023-02-27T02:19:08;8.98;;;5.10;;
57561;SDS011;43397;51.530;5.974;2023-02-27T02:28:13;9.55;;;5.40;;
57561;SDS011;43397;51.530;5.974;2023-02-27T02:37:28;10.57;;;5.13;;
57561;SDS011;43397;51.530;5.974;2023-02-27T02:40:20;7.20;;;4.10;;
57561;SDS011;43397;51.530;5.974;2023-02-27T02:42:57;8.93;;;4.43;;
57561;SDS011;43397;51.530;5.974;2023-02-27T02:45:32;7.72;;;4.63;;
57561;SDS011;43397;51.530;5.974;2023-02-27T02:48:07;8.68;;;4.15;;
57561;SDS011;43397;51.530;5.974;2023-02-27T02:50:38;7.35;;;4.45;;
57561;SDS011;43397;51.530;5.974;2023-02-27T02:53:10;7.03;;;4.03;;
57561;SDS011;43397;51.530;5.974;2023-02-27T02:55:45;11.95;;;5.05;;
57561;SDS011;43397;51.530;5.974;2023-02-27T02:58:14;9.43;;;5.10;;
57561;SDS011;43397;51.530;5.974;2023-02-27T03:00:46;11.38;;;4.43;;
57561;SDS011;43397;51.530;5.974;2023-02-27T03:03:18;7.70;;;5.07;;
57561;SDS011;43397;51.530;5.974;2023-02-27T03:05:53;9.63;;;5.05;;
57561;SDS011;43397;51.530;5.974;2023-02-27T03:08:25;12.18;;;4.93;;
57561;SDS011;43397;51.530;5.974;2023-02-27T03:10:57;8.95;;;5.22;;
57561;SDS011;43397;51.530;5.974;2023-02-27T03:13:26;7.60;;;4.80;;
57561;SDS011;43397;51.530;5.974;2023-02-27T03:16:01;9.35;;;5.40;;
57561;SDS011;43397;51.530;5.974;2023-02-27T03:18:31;10.02;;;5.90;;
57561;SDS011;43397;51.530;5.974;2023-02-27T03:21:02;11.77;;;5.93;;
57561;SDS011;43397;51.530;5.974;2023-02-27T03:23:33;12.40;;;6.10;;
57561;SDS011;43397;51.530;5.974;2023-02-27T03:26:03;10.85;;;5.90;;
57561;SDS011;43397;51.530;5.974;2023-02-27T03:28:31;8.93;;;5.80;;
57561;SDS011;43397;51.530;5.974;2023-02-27T03:31:00;11.13;;;6.07;;
57561;SDS011;43397;51.530;5.974;2023-02-27T03:33:32;10.95;;;6.32;;
57561;SDS011;43397;51.530;5.974;2023-02-27T03:36:03;12.82;;;6.47;;
57561;SDS011;43397;51.530;5.974;2023-02-27T03:38:35;10.85;;;5.93;;
57561;SDS011;43397;51.530;5.974;2023-02-27T03:41:07;10.38;;;5.82;;
57561;SDS011;43397;51.530;5.974;2023-02-27T03:43:40;10.05;;;5.82;;
57561;SDS011;43397;51.530;5.974;2023-02-27T03:46:15;10.68;;;6.53;;
57561;SDS011;43397;51.530;5.974;2023-02-27T03:48:42;11.90;;;6.27;;
57561;SDS011;43397;51.530;5.974;2023-02-27T03:51:10;11.27;;;5.45;;
57561;SDS011;43397;51.530;5.974;2023-02-27T03:53:37;12.23;;;6.90;;
57561;SDS011;43397;51.530;5.974;2023-02-27T03:56:11;10.55;;;6.93;;
57561;SDS011;43397;51.530;5.974;2023-02-27T03:58:39;9.52;;;6.43;;
57561;SDS011;43397;51.530;5.974;2023-02-27T04:01:05;15.48;;;6.53;;
57561;SDS011;43397;51.530;5.974;2023-02-27T04:03:31;10.38;;;6.22;;
57561;SDS011;43397;51.530;5.974;2023-02-27T04:06:00;10.95;;;6.45;;
57561;SDS011;43397;51.530;5.974;2023-02-27T04:08:31;9.57;;;6.30;;
57561;SDS011;43397;51.530;5.974;2023-02-27T04:11:18;12.88;;;6.45;;
57561;SDS011;43397;51.530;5.974;2023-02-27T04:13:58;17.67;;;7.95;;
57561;SDS011;43397;51.530;5.974;2023-02-27T04:20:12;11.73;;;7.07;;
57561;SDS011;43397;51.530;5.974;2023-02-27T04:22:48;12.30;;;7.65;;
57561;SDS011;43397;51.530;5.974;2023-02-27T04:25:26;13.45;;;8.20;;
57561;SDS011;43397;51.530;5.974;2023-02-27T04:28:04;14.32;;;8.32;;
57561;SDS011;43397;51.530;5.974;2023-02-27T04:30:37;14.45;;;9.18;;
57561;SDS011;43397;51.530;5.974;2023-02-27T04:33:10;12.48;;;7.72;;
57561;SDS011;43397;51.530;5.974;2023-02-27T04:35:41;18.25;;;8.48;;
57561;SDS011;43397;51.530;5.974;2023-02-27T04:38:13;13.75;;;8.02;;
57561;SDS011;43397;51.530;5.974;2023-02-27T04:40:44;12.52;;;8.52;;
57561;SDS011;43397;51.530;5.974;2023-02-27T04:43:14;12.52;;;7.50;;
57561;SDS011;43397;51.530;5.974;2023-02-27T04:45:43;16.33;;;9.10;;
57561;SDS011;43397;51.530;5.974;2023-02-27T04:48:12;16.05;;;8.45;;
57561;SDS011;43397;51.530;5.974;2023-02-27T04:50:43;13.60;;;8.23;;
57561;SDS011;43397;51.530;5.974;2023-02-27T04:53:13;13.27;;;8.05;;
57561;SDS011;43397;51.530;5.974;2023-02-27T04:55:45;15.00;;;8.18;;
57561;SDS011;43397;51.530;5.974;2023-02-27T04:58:16;10.32;;;7.57;;
57561;SDS011;43397;51.530;5.974;2023-02-27T05:00:45;14.45;;;9.38;;
57561;SDS011;43397;51.530;5.974;2023-02-27T05:03:16;17.02;;;8.45;;
57561;SDS011;43397;51.530;5.974;2023-02-27T05:05:46;17.88;;;8.93;;
57561;SDS011;43397;51.530;5.974;2023-02-27T05:08:15;16.40;;;9.27;;
57561;SDS011;43397;51.530;5.974;2023-02-27T05:10:48;18.02;;;9.43;;
57561;SDS011;43397;51.530;5.974;2023-02-27T05:13:19;15.38;;;9.63;;
57561;SDS011;43397;51.530;5.974;2023-02-27T05:15:50;16.50;;;9.77;;
57561;SDS011;43397;51.530;5.974;2023-02-27T05:18:20;16.02;;;9.70;;
57561;SDS011;43397;51.530;5.974;2023-02-27T05:20:49;18.88;;;10.55;;
57561;SDS011;43397;51.530;5.974;2023-02-27T05:23:27;18.00;;;10.00;;
57561;SDS011;43397;51.530;5.974;2023-02-27T05:26:00;19.05;;;10.93;;
57561;SDS011;43397;51.530;5.974;2023-02-27T05:28:33;18.25;;;10.27;;
57561;SDS011;43397;51.530;5.974;2023-02-27T05:31:04;16.85;;;10.25;;
57561;SDS011;43397;51.530;5.974;2023-02-27T05:33:37;19.55;;;10.10;;
57561;SDS011;43397;51.530;5.974;2023-02-27T05:36:10;19.05;;;10.82;;
57561;SDS011;43397;51.530;5.974;2023-02-27T05:38:41;17.67;;;9.88;;
57561;SDS011;43397;51.530;5.974;2023-02-27T05:41:12;17.55;;;10.02;;
57561;SDS011;43397;51.530;5.974;2023-02-27T05:43:43;17.23;;;9.82;;
57561;SDS011;43397;51.530;5.974;2023-02-27T05:46:12;18.25;;;10.80;;
57561;SDS011;43397;51.530;5.974;2023-02-27T05:48:45;20.65;;;11.25;;
57561;SDS011;43397;51.530;5.974;2023-02-27T05:51:16;17.38;;;10.25;;
57561;SDS011;43397;51.530;5.974;2023-02-27T05:53:45;18.73;;;10.65;;
57561;SDS011;43397;51.530;5.974;2023-02-27T05:56:15;19.25;;;10.45;;
57561;SDS011;43397;51.530;5.974;2023-02-27T05:58:48;17.25;;;10.02;;
57561;SDS011;43397;51.530;5.974;2023-02-27T06:01:18;18.00;;;9.98;;
57561;SDS011;43397;51.530;5.974;2023-02-27T06:03:45;18.77;;;10.70;;
57561;SDS011;43397;51.530;5.974;2023-02-27T06:06:12;22.63;;;11.55;;
57561;SDS011;43397;51.530;5.974;2023-02-27T06:08:40;17.73;;;10.27;;
57561;SDS011;43397;51.530;5.974;2023-02-27T06:11:06;15.70;;;10.18;;
57561;SDS011;43397;51.530;5.974;2023-02-27T06:13:33;17.10;;;9.38;;
57561;SDS011;43397;51.530;5.974;2023-02-27T06:16:00;14.10;;;9.18;;
57561;SDS011;43397;51.530;5.974;2023-02-27T06:18:26;18.85;;;10.35;;
57561;SDS011;43397;51.530;5.974;2023-02-27T06:20:52;17.10;;;9.60;;
57561;SDS011;43397;51.530;5.974;2023-02-27T06:23:18;16.75;;;9.38;;
57561;SDS011;43397;51.530;5.974;2023-02-27T06:25:44;17.08;;;8.80;;
57561;SDS011;43397;51.530;5.974;2023-02-27T06:28:10;12.88;;;8.75;;
57561;SDS011;43397;51.530;5.974;2023-02-27T06:30:36;15.85;;;8.88;;
57561;SDS011;43397;51.530;5.974;2023-02-27T06:33:04;16.20;;;9.18;;
57561;SDS011;43397;51.530;5.974;2023-02-27T06:35:30;18.00;;;9.43;;
57561;SDS011;43397;51.530;5.974;2023-02-27T06:37:56;16.13;;;9.13;;
57561;SDS011;43397;51.530;5.974;2023-02-27T06:40:22;15.70;;;8.95;;
57561;SDS011;43397;51.530;5.974;2023-02-27T06:42:48;15.43;;;9.07;;
57561;SDS011;43397;51.530;5.974;2023-02-27T06:45:14;17.10;;;10.35;;
57561;SDS011;43397;51.530;5.974;2023-02-27T06:47:41;18.02;;;11.52;;
57561;SDS011;43397;51.530;5.974;2023-02-27T06:50:09;15.65;;;9.35;;
57561;SDS011;43397;51.530;5.974;2023-02-27T06:52:37;17.20;;;10.38;;
57561;SDS011;43397;51.530;5.974;2023-02-27T06:55:04;17.85;;;10.43;;
57561;SDS011;43397;51.530;5.974;2023-02-27T06:57:31;15.18;;;8.35;;
57561;SDS011;43397;51.530;5.974;2023-02-27T06:59:57;15.35;;;9.77;;
57561;SDS011;43397;51.530;5.974;2023-02-27T07:02:25;16.17;;;9.45;;
57561;SDS011;43397;51.530;5.974;2023-02-27T07:04:51;14.95;;;10.00;;
57561;SDS011;43397;51.530;5.974;2023-02-27T07:07:18;15.75;;;9.52;;
57561;SDS011;43397;51.530;5.974;2023-02-27T07:09:45;17.25;;;9.60;;
57561;SDS011;43397;51.530;5.974;2023-02-27T07:12:11;16.67;;;10.07;;
57561;SDS011;43397;51.530;5.974;2023-02-27T07:14:37;12.90;;;8.77;;
57561;SDS011;43397;51.530;5.974;2023-02-27T07:17:03;11.00;;;7.93;;
57561;SDS011;43397;51.530;5.974;2023-02-27T07:19:30;13.93;;;8.45;;
57561;SDS011;43397;51.530;5.974;2023-02-27T07:21:56;16.20;;;8.48;;
57561;SDS011;43397;51.530;5.974;2023-02-27T07:24:23;13.38;;;8.68;;
57561;SDS011;43397;51.530;5.974;2023-02-27T07:26:50;16.88;;;7.80;;
57561;SDS011;43397;51.530;5.974;2023-02-27T07:29:15;13.88;;;7.78;;
57561;SDS011;43397;51.530;5.974;2023-02-27T07:31:41;14.13;;;8.10;;
57561;SDS011;43397;51.530;5.974;2023-02-27T07:34:07;16.52;;;9.50;;
57561;SDS011;43397;51.530;5.974;2023-02-27T07:36:33;12.98;;;8.40;;
57561;SDS011;43397;51.530;5.974;2023-02-27T07:38:58;17.38;;;8.60;;
57561;SDS011;43397;51.530;5.974;2023-02-27T07:41:26;12.75;;;8.02;;
57561;SDS011;43397;51.530;5.974;2023-02-27T07:43:51;12.20;;;7.00;;
57561;SDS011;43397;51.530;5.974;2023-02-27T07:46:17;10.75;;;7.72;;
57561;SDS011;43397;51.530;5.974;2023-02-27T07:48:43;11.55;;;7.15;;
57561;SDS011;43397;51.530;5.974;2023-02-27T07:51:09;13.50;;;7.28;;
57561;SDS011;43397;51.530;5.974;2023-02-27T07:53:34;9.73;;;6.95;;
57561;SDS011;43397;51.530;5.974;2023-02-27T07:56:00;10.55;;;6.85;;
57561;SDS011;43397;51.530;5.974;2023-02-27T07:58:27;13.05;;;6.95;;
57561;SDS011;43397;51.530;5.974;2023-02-27T08:00:53;9.07;;;5.60;;
57561;SDS011;43397;51.530;5.974;2023-02-27T08:03:19;10.73;;;6.57;;
57561;SDS011;43397;51.530;5.974;2023-02-27T08:05:44;10.05;;;5.22;;
57561;SDS011;43397;51.530;5.974;2023-02-27T08:08:10;11.15;;;6.90;;
57561;SDS011;43397;51.530;5.974;2023-02-27T08:10:36;8.32;;;5.20;;
57561;SDS011;43397;51.530;5.974;2023-02-27T08:13:02;8.60;;;5.47;;
57561;SDS011;43397;51.530;5.974;2023-02-27T08:15:29;9.88;;;6.38;;
57561;SDS011;43397;51.530;5.974;2023-02-27T08:17:55;10.20;;;4.25;;
57561;SDS011;43397;51.530;5.974;2023-02-27T08:20:21;7.93;;;4.78;;
57561;SDS011;43397;51.530;5.974;2023-02-27T08:22:47;8.52;;;5.43;;
57561;SDS011;43397;51.530;5.974;2023-02-27T08:25:13;7.78;;;4.65;;
57561;SDS011;43397;51.530;5.974;2023-02-27T08:27:41;8.50;;;4.28;;
57561;SDS011;43397;51.530;5.974;2023-02-27T08:30:08;9.27;;;4.35;;
57561;SDS011;43397;51.530;5.974;2023-02-27T08:32:36;10.23;;;5.05;;
57561;SDS011;43397;51.530;5.974;2023-02-27T08:35:02;8.05;;;4.03;;
57561;SDS011;43397;51.530;5.974;2023-02-27T08:37:29;9.77;;;5.25;;
57561;SDS011;43397;51.530;5.974;2023-02-27T08:39:55;10.15;;;4.55;;
57561;SDS011;43397;51.530;5.974;2023-02-27T08:42:20;9.50;;;4.90;;
57561;SDS011;43397;51.530;5.974;2023-02-27T08:44:46;7.75;;;4.70;;
57561;SDS011;43397;51.530;5.974;2023-02-27T08:47:12;8.55;;;4.68;;
57561;SDS011;43397;51.530;5.974;2023-02-27T08:49:39;7.30;;;3.90;;
57561;SDS011;43397;51.530;5.974;2023-02-27T08:52:05;8.13;;;3.67;;
57561;SDS011;43397;51.530;5.974;2023-02-27T08:54:30;8.60;;;3.05;;
57561;SDS011;43397;51.530;5.974;2023-02-27T08:56:56;7.28;;;4.00;;
57561;SDS011;43397;51.530;5.974;2023-02-27T08:59:22;7.55;;;4.03;;
57561;SDS011;43397;51.530;5.974;2023-02-27T09:01:48;8.18;;;3.75;;
57561;SDS011;43397;51.530;5.974;2023-02-27T09:04:13;8.93;;;3.88;;
57561;SDS011;43397;51.530;5.974;2023-02-27T09:06:40;6.35;;;3.45;;
57561;SDS011;43397;51.530;5.974;2023-02-27T09:09:07;5.57;;;3.72;;
57561;SDS011;43397;51.530;5.974;2023-02-27T09:11:33;6.20;;;3.55;;
57561;SDS011;43397;51.530;5.974;2023-02-27T09:13:59;12.68;;;4.28;;
57561;SDS011;43397;51.530;5.974;2023-02-27T09:16:25;6.90;;;3.22;;
57561;SDS011;43397;51.530;5.974;2023-02-27T09:18:51;6.40;;;3.20;;
57561;SDS011;43397;51.530;5.974;2023-02-27T09:21:18;8.20;;;3.22;;
57561;SDS011;43397;51.530;5.974;2023-02-27T09:23:45;6.78;;;3.03;;
57561;SDS011;43397;51.530;5.974;2023-02-27T09:26:11;6.45;;;3.35;;
57561;SDS011;43397;51.530;5.974;2023-02-27T09:28:37;5.95;;;3.20;;
57561;SDS011;43397;51.530;5.974;2023-02-27T09:31:03;9.93;;;4.15;;
57561;SDS011;43397;51.530;5.974;2023-02-27T09:33:30;7.95;;;2.70;;
57561;SDS011;43397;51.530;5.974;2023-02-27T09:35:56;6.40;;;2.60;;
57561;SDS011;43397;51.530;5.974;2023-02-27T09:38:22;6.10;;;2.17;;
57561;SDS011;43397;51.530;5.974;2023-02-27T09:40:49;9.25;;;2.90;;
57561;SDS011;43397;51.530;5.974;2023-02-27T09:43:17;5.32;;;2.67;;
57561;SDS011;43397;51.530;5.974;2023-02-27T09:45:46;6.95;;;2.17;;
57561;SDS011;43397;51.530;5.974;2023-02-27T09:48:19;5.13;;;2.05;;
57561;SDS011;43397;51.530;5.974;2023-02-27T09:50:54;5.07;;;1.67;;
57561;SDS011;43397;51.530;5.974;2023-02-27T09:53:20;5.35;;;1.70;;
57561;SDS011;43397;51.530;5.974;2023-02-27T09:58:24;4.05;;;1.85;;
57561;SDS011;43397;51.530;5.974;2023-02-27T10:00:59;4.55;;;2.13;;
57561;SDS011;43397;51.530;5.974;2023-02-27T10:03:35;4.68;;;1.98;;
57561;SDS011;43397;51.530;5.974;2023-02-27T10:06:16;4.22;;;2.03;;
57561;SDS011;43397;51.530;5.974;2023-02-27T10:08:50;4.07;;;1.65;;
57561;SDS011;43397;51.530;5.974;2023-02-27T10:11:29;5.53;;;2.17;;
57561;SDS011;43397;51.530;5.974;2023-02-27T10:14:02;6.13;;;2.25;;
57561;SDS011;43397;51.530;5.974;2023-02-27T10:16:34;5.90;;;2.00;;
57561;SDS011;43397;51.530;5.974;2023-02-27T10:19:01;7.80;;;2.35;;
57561;SDS011;43397;51.530;5.974;2023-02-27T10:21:29;4.60;;;2.30;;
57561;SDS011;43397;51.530;5.974;2023-02-27T10:24:00;5.65;;;2.00;;
57561;SDS011;43397;51.530;5.974;2023-02-27T10:26:39;4.40;;;2.53;;
57561;SDS011;43397;51.530;5.974;2023-02-27T10:29:14;5.68;;;2.10;;
57561;SDS011;43397;51.530;5.974;2023-02-27T10:31:43;4.32;;;2.00;;
57561;SDS011;43397;51.530;5.974;2023-02-27T10:34:12;4.93;;;2.17;;
57561;SDS011;43397;51.530;5.974;2023-02-27T10:36:39;6.72;;;2.30;;
57561;SDS011;43397;51.530;5.974;2023-02-27T10:39:06;3.38;;;1.80;;
57561;SDS011;43397;51.530;5.974;2023-02-27T10:44:03;4.60;;;1.73;;
57561;SDS011;43397;51.530;5.974;2023-02-27T10:46:29;5.85;;;2.20;;
57561;SDS011;43397;51.530;5.974;2023-02-27T10:48:59;4.90;;;1.70;;
57561;SDS011;43397;51.530;5.974;2023-02-27T10:51:26;5.65;;;1.70;;
57561;SDS011;43397;51.530;5.974;2023-02-27T10:56:54;4.30;;;2.20;;
57561;SDS011;43397;51.530;5.974;2023-02-27T10:59:24;4.55;;;1.90;;
57561;SDS011;43397;51.530;5.974;2023-02-27T11:01:52;2.75;;;1.67;;
57561;SDS011;43397;51.530;5.974;2023-02-27T11:04:27;5.03;;;1.98;;
57561;SDS011;43397;51.530;5.974;2023-02-27T11:06:56;6.05;;;1.90;;
57561;SDS011;43397;51.530;5.974;2023-02-27T11:09:25;4.57;;;2.40;;
57561;SDS011;43397;51.530;5.974;2023-02-27T11:11:52;5.47;;;2.10;;
57561;SDS011;43397;51.530;5.974;2023-02-27T11:14:27;2.80;;;1.50;;
57561;SDS011;43397;51.530;5.974;2023-02-27T11:16:55;6.93;;;1.77;;
57561;SDS011;43397;51.530;5.974;2023-02-27T11:19:23;5.32;;;2.25;;
57561;SDS011;43397;51.530;5.974;2023-02-27T11:22:00;3.30;;;1.60;;
57561;SDS011;43397;51.530;5.974;2023-02-27T11:24:28;5.90;;;2.10;;
57561;SDS011;43397;51.530;5.974;2023-02-27T11:26:54;3.58;;;1.80;;
57561;SDS011;43397;51.530;5.974;2023-02-27T11:29:24;6.75;;;2.00;;
57561;SDS011;43397;51.530;5.974;2023-02-27T11:32:17;5.03;;;2.40;;
57561;SDS011;43397;51.530;5.974;2023-02-27T11:34:45;5.90;;;2.10;;
57561;SDS011;43397;51.530;5.974;2023-02-27T11:37:18;8.32;;;3.50;;
57561;SDS011;43397;51.530;5.974;2023-02-27T11:39:51;7.88;;;2.25;;
57561;SDS011;43397;51.530;5.974;2023-02-27T11:42:25;4.45;;;2.10;;
57561;SDS011;43397;51.530;5.974;2023-02-27T11:44:55;4.15;;;2.22;;
57561;SDS011;43397;51.530;5.974;2023-02-27T11:47:26;4.75;;;2.15;;
57561;SDS011;43397;51.530;5.974;2023-02-27T11:50:01;6.95;;;2.53;;
57561;SDS011;43397;51.530;5.974;2023-02-27T11:52:35;4.18;;;1.90;;
57561;SDS011;43397;51.530;5.974;2023-02-27T11:55:10;5.18;;;2.20;;
57561;SDS011;43397;51.530;5.974;2023-02-27T11:57:39;6.32;;;4.07;;
57561;SDS011;43397;51.530;5.974;2023-02-27T12:00:14;7.63;;;2.20;;
57561;SDS011;43397;51.530;5.974;2023-02-27T12:02:44;6.60;;;2.85;;
57561;SDS011;43397;51.530;5.974;2023-02-27T12:05:18;6.40;;;2.47;;
57561;SDS011;43397;51.530;5.974;2023-02-27T12:07:47;4.88;;;2.63;;
57561;SDS011;43397;51.530;5.974;2023-02-27T12:10:18;6.50;;;2.83;;
57561;SDS011;43397;51.530;5.974;2023-02-27T12:12:47;4.72;;;2.45;;
57561;SDS011;43397;51.530;5.974;2023-02-27T12:15:18;4.97;;;2.30;;
57561;SDS011;43397;51.530;5.974;2023-02-27T12:17:53;5.00;;;2.28;;
57561;SDS011;43397;51.530;5.974;2023-02-27T12:20:28;4.70;;;2.20;;
57561;SDS011;43397;51.530;5.974;2023-02-27T12:23:00;7.68;;;2.70;;
57561;SDS011;43397;51.530;5.974;2023-02-27T12:25:36;5.25;;;2.97;;
57561;SDS011;43397;51.530;5.974;2023-02-27T12:28:07;4.45;;;2.30;;
57561;SDS011;43397;51.530;5.974;2023-02-27T12:30:44;5.43;;;2.92;;
57561;SDS011;43397;51.530;5.974;2023-02-27T12:33:23;5.78;;;3.13;;
57561;SDS011;43397;51.530;5.974;2023-02-27T12:35:57;6.20;;;2.28;;
57561;SDS011;43397;51.530;5.974;2023-02-27T12:38:26;6.97;;;3.28;;
57561;SDS011;43397;51.530;5.974;2023-02-27T12:40:57;7.20;;;3.10;;
57561;SDS011;43397;51.530;5.974;2023-02-27T12:46:11;4.15;;;2.38;;
57561;SDS011;43397;51.530;5.974;2023-02-27T12:48:52;4.45;;;2.67;;
57561;SDS011;43397;51.530;5.974;2023-02-27T12:51:33;9.38;;;5.57;;
57561;SDS011;43397;51.530;5.974;2023-02-27T12:56:42;5.65;;;2.28;;
57561;SDS011;43397;51.530;5.974;2023-02-27T12:59:17;4.40;;;2.30;;
57561;SDS011;43397;51.530;5.974;2023-02-27T13:01:56;7.32;;;6.00;;
57561;SDS011;43397;51.530;5.974;2023-02-27T13:04:32;12.27;;;7.13;;
57561;SDS011;43397;51.530;5.974;2023-02-27T13:07:07;6.65;;;2.95;;
57561;SDS011;43397;51.530;5.974;2023-02-27T13:09:38;4.65;;;2.38;;
57561;SDS011;43397;51.530;5.974;2023-02-27T13:12:09;3.90;;;2.25;;
57561;SDS011;43397;51.530;5.974;2023-02-27T13:14:50;8.18;;;2.50;;
57561;SDS011;43397;51.530;5.974;2023-02-27T13:17:22;8.32;;;2.97;;
57561;SDS011;43397;51.530;5.974;2023-02-27T13:19:53;4.60;;;2.88;;
57561;SDS011;43397;51.530;5.974;2023-02-27T13:22:29;8.48;;;2.63;;
57561;SDS011;43397;51.530;5.974;2023-02-27T13:25:04;8.63;;;3.58;;
57561;SDS011;43397;51.530;5.974;2023-02-27T13:27:36;7.13;;;2.40;;
57561;SDS011;43397;51.530;5.974;2023-02-27T13:30:10;5.85;;;2.20;;
57561;SDS011;43397;51.530;5.974;2023-02-27T13:32:43;6.30;;;2.60;;
57561;SDS011;43397;51.530;5.974;2023-02-27T13:35:18;3.75;;;2.35;;
57561;SDS011;43397;51.530;5.974;2023-02-27T13:37:48;7.00;;;3.08;;
57561;SDS011;43397;51.530;5.974;2023-02-27T13:40:25;5.97;;;3.22;;
57561;SDS011;43397;51.530;5.974;2023-02-27T13:42:57;6.45;;;3.97;;
57561;SDS011;43397;51.530;5.974;2023-02-27T13:54:19;5.75;;;2.47;;
57561;SDS011;43397;51.530;5.974;2023-02-27T13:56:48;5.20;;;3.08;;
57561;SDS011;43397;51.530;5.974;2023-02-27T13:59:19;4.15;;;2.15;;
57561;SDS011;43397;51.530;5.974;2023-02-27T14:01:49;5.43;;;2.60;;
57561;SDS011;43397;51.530;5.974;2023-02-27T14:04:16;3.28;;;2.03;;
57561;SDS011;43397;51.530;5.974;2023-02-27T14:06:44;4.85;;;2.10;;
57561;SDS011;43397;51.530;5.974;2023-02-27T14:09:12;4.63;;;2.17;;
57561;SDS011;43397;51.530;5.974;2023-02-27T14:11:51;4.72;;;1.95;;
57561;SDS011;43397;51.530;5.974;2023-02-27T14:14:35;5.25;;;2.25;;
57561;SDS011;43397;51.530;5.974;2023-02-27T14:17:05;5.38;;;2.20;;
57561;SDS011;43397;51.530;5.974;2023-02-27T14:28:17;7.20;;;3.65;;
57561;SDS011;43397;51.530;5.974;2023-02-27T14:30:50;6.82;;;4.72;;
57561;SDS011;43397;51.530;5.974;2023-02-27T14:33:20;11.82;;;7.80;;
57561;SDS011;43397;51.530;5.974;2023-02-27T14:35:50;3.97;;;2.58;;
57561;SDS011;43397;51.530;5.974;2023-02-27T14:38:22;12.07;;;8.85;;
57561;SDS011;43397;51.530;5.974;2023-02-27T14:40:52;7.57;;;5.25;;
57561;SDS011;43397;51.530;5.974;2023-02-27T14:43:31;5.45;;;3.90;;
57561;SDS011;43397;51.530;5.974;2023-02-27T14:46:04;6.72;;;4.07;;
57561;SDS011;43397;51.530;5.974;2023-02-27T14:48:31;5.32;;;2.53;;
57561;SDS011;43397;51.530;5.974;2023-02-27T14:50:57;6.15;;;2.40;;
57561;SDS011;43397;51.530;5.974;2023-02-27T14:53:26;4.25;;;2.67;;
57561;SDS011;43397;51.530;5.974;2023-02-27T14:55:52;3.60;;;2.42;;
57561;SDS011;43397;51.530;5.974;2023-02-27T14:58:20;9.30;;;2.95;;
57561;SDS011;43397;51.530;5.974;2023-02-27T15:00:48;5.10;;;2.97;;
57561;SDS011;43397;51.530;5.974;2023-02-27T15:03:25;5.15;;;2.00;;
57561;SDS011;43397;51.530;5.974;2023-02-27T15:08:22;5.63;;;2.40;;
57561;SDS011;43397;51.530;5.974;2023-02-27T15:10:50;4.23;;;2.40;;
57561;SDS011;43397;51.530;5.974;2023-02-27T15:13:20;3.80;;;2.30;;
57561;SDS011;43397;51.530;5.974;2023-02-27T15:15:51;4.53;;;2.28;;
57561;SDS011;43397;51.530;5.974;2023-02-27T15:19:02;5.75;;;2.80;;
57561;SDS011;43397;51.530;5.974;2023-02-27T15:21:37;4.40;;;2.28;;
57561;SDS011;43397;51.530;5.974;2023-02-27T15:24:05;4.68;;;2.58;;
57561;SDS011;43397;51.530;5.974;2023-02-27T15:26:33;5.80;;;3.38;;
57561;SDS011;43397;51.530;5.974;2023-02-27T15:29:00;5.38;;;2.83;;
57561;SDS011;43397;51.530;5.974;2023-02-27T15:31:29;6.85;;;3.15;;
57561;SDS011;43397;51.530;5.974;2023-02-27T15:33:55;5.43;;;2.70;;
57561;SDS011;43397;51.530;5.974;2023-02-27T15:36:22;3.55;;;2.22;;
57561;SDS011;43397;51.530;5.974;2023-02-27T15:39:01;5.25;;;2.90;;
57561;SDS011;43397;51.530;5.974;2023-02-27T15:41:29;5.45;;;2.83;;
57561;SDS011;43397;51.530;5.974;2023-02-27T15:43:55;6.15;;;3.05;;
57561;SDS011;43397;51.530;5.974;2023-02-27T15:46:20;7.13;;;2.70;;